Time;durP1;ratioP1;P1;durP2;ratioP2;P2;SDS_P1;SDS_P2;PMS_P1;PMS_P2;Temp;Humidity;BMP_temperature;BMP_pressure;BME280_temperature;BME280_humidity;BME280_pressure;Samples;Min_cycle;Max_cycle;Signal;HPM_P1;HPM_P2
2022/12/17 13:08:34;;;;;;;95.57;51.85;;;-1.70;99.90;;;;;;5013461;28;20505;-50
2022/12/17 13:11:36;;;;;;;101.35;52.97;;;-1.60;99.90;;;;;;5013213;28;20034;-53
2022/12/17 13:14:34;;;;;;;90.75;49.22;;;-1.60;99.90;;;;;;5013686;28;20022;-53
2022/12/17 13:17:34;;;;;;;95.20;52.22;;;-1.50;99.90;;;;;;5012746;28;20521;-55
2022/12/17 13:20:32;;;;;;;98.05;51.65;;;-1.60;99.90;;;;;;5009754;28;20126;-56
2022/12/17 13:23:37;;;;;;;96.47;51.08;;;-1.70;99.90;;;;;;5014219;28;20533;-54
2022/12/17 13:26:29;;;;;;;101.30;52.85;;;-1.60;99.90;;;;;;5014917;28;20030;-49
2022/12/17 13:29:41;;;;;;;92.75;51.25;;;-1.70;99.90;;;;;;5014151;28;20033;-51
2022/12/17 13:32:41;;;;;;;98.43;52.50;;;-1.60;99.90;;;;;;5012435;28;20449;-57
2022/12/17 13:35:46;;;;;;;98.05;52.67;;;-1.60;99.90;;;;;;5011881;28;20096;-55
2022/12/17 13:38:50;;;;;;;94.40;51.65;;;-1.50;99.90;;;;;;5011111;28;20029;-52
2022/12/17 13:41:37;;;;;;;98.63;51.60;;;-1.50;99.90;;;;;;5009811;28;20425;-56
2022/12/17 13:44:44;;;;;;;98.35;54.58;;;-1.50;99.90;;;;;;5008879;28;20030;-55
2022/12/17 13:47:34;;;;;;;110.47;57.72;;;-1.60;99.90;;;;;;5013042;28;20022;-56
2022/12/17 13:50:28;;;;;;;103.47;55.05;;;-1.40;99.90;;;;;;4993961;28;20022;-52
2022/12/17 13:53:14;;;;;;;104.70;54.92;;;-1.50;99.90;;;;;;5002219;28;20110;-50
2022/12/17 13:56:00;;;;;;;96.88;53.00;;;-1.60;99.90;;;;;;5013340;28;20449;-54
2022/12/17 13:58:51;;;;;;;100.05;54.88;;;-1.60;99.90;;;;;;5013877;28;20490;-53
2022/12/17 14:01:45;;;;;;;99.47;53.70;;;-1.50;99.90;;;;;;5011122;28;20025;-51
2022/12/17 14:04:31;;;;;;;103.40;54.78;;;-1.50;99.90;;;;;;5000745;28;20038;-53
2022/12/17 14:07:18;;;;;;;109.63;56.17;;;-1.40;99.90;;;;;;5005258;28;20022;-57
2022/12/17 14:10:13;;;;;;;101.97;54.65;;;-1.50;99.90;;;;;;5005308;28;20064;-54
2022/12/17 14:13:09;;;;;;;100.47;51.63;;;-1.50;99.90;;;;;;5004564;28;20113;-52
2022/12/17 14:15:55;;;;;;;117.80;59.67;;;-1.40;99.90;;;;;;4994804;28;20038;-53
2022/12/17 14:18:49;;;;;;;106.55;56.67;;;-1.40;99.90;;;;;;5014781;28;20057;-51
2022/12/17 14:21:36;;;;;;;104.65;55.78;;;-1.40;99.90;;;;;;5012294;28;20022;-54
2022/12/17 14:24:26;;;;;;;104.47;54.42;;;-1.40;99.90;;;;;;5011412;28;20034;-54
2022/12/17 14:27:25;;;;;;;105.43;53.97;;;-1.50;99.90;;;;;;4997474;28;20114;-53
2022/12/17 14:30:34;;;;;;;107.55;53.80;;;-1.50;99.90;;;;;;5012385;28;20406;-52
2022/12/17 14:33:32;;;;;;;110.35;57.92;;;-1.40;99.90;;;;;;5011206;28;20045;-55
2022/12/17 14:36:22;;;;;;;114.63;58.50;;;-1.50;99.90;;;;;;5011205;28;20137;-54
2022/12/17 14:39:22;;;;;;;110.22;55.95;;;-1.50;99.90;;;;;;5012240;28;20026;-53
2022/12/17 14:42:25;;;;;;;109.35;59.33;;;-1.60;99.90;;;;;;5009708;28;20614;-53
2022/12/17 14:45:14;;;;;;;128.80;65.45;;;-1.50;99.90;;;;;;5006540;28;20041;-54
2022/12/17 14:48:05;;;;;;;119.15;62.60;;;-1.40;99.90;;;;;;4993316;28;20040;-49
2022/12/17 14:50:55;;;;;;;114.28;64.10;;;-1.40;99.90;;;;;;4996544;28;20057;-49
2022/12/17 14:53:41;;;;;;;115.18;62.30;;;-1.40;99.90;;;;;;5010191;28;20037;-60
2022/12/17 14:56:28;;;;;;;107.15;56.17;;;-1.30;99.90;;;;;;5017239;28;20104;-57
2022/12/17 14:59:34;;;;;;;112.93;60.20;;;-1.30;99.90;;;;;;5010011;28;20037;-54
2022/12/17 15:02:30;;;;;;;;;;;-1.30;99.90;;;;;;5005006;28;20053;-57
2022/12/17 15:05:16;;;;;;;116.50;56.63;;;-1.40;99.90;;;;;;4992259;28;20262;-57
2022/12/17 15:08:04;;;;;;;117.80;58.70;;;-1.50;99.90;;;;;;5004427;28;20041;-58
2022/12/17 15:10:50;;;;;;;120.53;57.97;;;-1.60;99.90;;;;;;5011127;28;20034;-55
2022/12/17 15:13:36;;;;;;;125.47;59.38;;;-1.50;99.90;;;;;;5011665;28;20113;-56
2022/12/17 15:16:22;;;;;;;120.60;57.97;;;-1.40;99.90;;;;;;5009084;28;20034;-55
2022/12/17 15:19:08;;;;;;;122.22;62.75;;;-1.40;99.90;;;;;;4992466;28;20042;-59
2022/12/17 15:21:54;;;;;;;112.95;56.58;;;-1.30;99.90;;;;;;4991233;28;20506;-52
2022/12/17 15:24:39;;;;;;;118.90;59.58;;;-1.20;99.90;;;;;;4991819;28;20023;-54
2022/12/17 15:27:26;;;;;;;120.22;57.13;;;-1.20;99.90;;;;;;4997601;28;20029;-56
2022/12/17 15:30:14;;;;;;;119.25;59.45;;;-1.30;99.90;;;;;;5011669;28;20034;-56
2022/12/17 15:33:01;;;;;;;108.90;55.40;;;-1.30;99.90;;;;;;5012420;28;20029;-55
2022/12/17 15:35:47;;;;;;;118.28;57.00;;;-1.40;99.90;;;;;;5012688;28;20034;-57
2022/12/17 15:38:33;;;;;;;116.05;55.58;;;-1.50;99.90;;;;;;5006462;28;20099;-56
2022/12/17 15:44:23;;;;;;;116.18;53.63;;;-1.60;99.90;;;;;;5000971;28;20450;-54
2022/12/17 15:47:09;;;;;;;106.70;52.67;;;-1.70;99.90;;;;;;5008748;28;20030;-49
2022/12/17 15:49:55;;;;;;;108.80;54.08;;;-1.70;99.90;;;;;;5002889;28;20128;-51
2022/12/17 15:52:41;;;;;;;115.63;54.92;;;-1.60;99.90;;;;;;5008454;28;20026;-50
2022/12/17 15:55:27;;;;;;;120.68;57.30;;;-1.60;99.90;;;;;;5001684;28;20113;-56
2022/12/17 15:58:13;;;;;;;116.63;54.95;;;-1.60;99.90;;;;;;4998083;28;20018;-53
2022/12/17 16:00:59;;;;;;;108.43;54.30;;;-1.60;99.90;;;;;;5017041;28;20042;-51
2022/12/17 16:03:45;;;;;;;105.90;53.85;;;-1.60;99.90;;;;;;5009172;28;20038;-54
2022/12/17 16:06:32;;;;;;;130.07;55.47;;;-1.80;99.90;;;;;;5010365;28;20109;-56
2022/12/17 16:09:18;;;;;;;104.47;53.30;;;-1.80;99.90;;;;;;5011469;28;20053;-50
2022/12/17 16:12:04;;;;;;;102.15;48.88;;;-2.00;99.90;;;;;;5013716;28;20036;-53
2022/12/17 16:14:50;;;;;;;106.65;53.28;;;-2.00;99.90;;;;;;5009804;28;20092;-53
2022/12/17 16:17:36;;;;;;;105.30;49.28;;;-2.00;99.90;;;;;;5012072;28;20066;-55
2022/12/17 16:20:23;;;;;;;102.53;49.38;;;-2.20;99.90;;;;;;5001556;28;20039;-52
2022/12/17 16:23:09;;;;;;;98.40;47.30;;;-2.30;99.90;;;;;;5008053;28;20030;-56
2022/12/17 16:26:01;;;;;;;103.53;51.17;;;-2.20;99.90;;;;;;5009417;28;20061;-54
2022/12/17 16:28:47;;;;;;;104.07;52.03;;;-2.10;99.90;;;;;;5007202;28;20061;-57
2022/12/17 16:31:33;;;;;;;105.68;49.35;;;-2.00;99.90;;;;;;5009463;28;20034;-56
2022/12/17 16:34:19;;;;;;;98.32;48.20;;;-2.00;99.90;;;;;;5010539;28;20124;-51
2022/12/17 16:37:05;;;;;;;101.55;48.85;;;-2.00;99.90;;;;;;5008264;28;20034;-55
2022/12/17 16:39:51;;;;;;;105.25;49.38;;;-1.90;99.90;;;;;;5012465;28;20080;-56
2022/12/17 16:42:37;;;;;;;95.18;47.33;;;-2.00;99.90;;;;;;5012398;28;20040;-55
2022/12/17 16:45:23;;;;;;;105.18;47.60;;;-2.10;99.90;;;;;;5005207;28;20048;-54
2022/12/17 16:48:09;;;;;;;102.85;49.50;;;-2.10;99.90;;;;;;4997337;28;20568;-55
2022/12/17 16:50:55;;;;;;;101.22;46.95;;;-2.20;99.90;;;;;;5011357;28;20026;-55
2022/12/17 16:53:41;;;;;;;105.80;50.00;;;-2.10;99.90;;;;;;5009636;28;20045;-53
2022/12/17 16:56:27;;;;;;;93.70;43.95;;;-2.10;99.90;;;;;;5013469;28;20118;-54
2022/12/17 16:59:14;;;;;;;104.15;49.67;;;-2.10;99.90;;;;;;5008959;28;20066;-51
2022/12/17 17:02:01;;;;;;;118.10;55.70;;;-2.10;99.90;;;;;;4997119;28;20095;-52
2022/12/17 17:04:47;;;;;;;108.18;49.83;;;-2.10;99.90;;;;;;5012909;28;20114;-52
2022/12/17 17:07:33;;;;;;;93.78;45.90;;;-2.10;99.90;;;;;;5013693;28;20029;-57
2022/12/17 17:10:19;;;;;;;104.70;48.88;;;-2.10;99.90;;;;;;5008219;28;20422;-56
2022/12/17 17:13:05;;;;;;;102.70;46.55;;;-2.10;99.90;;;;;;5006882;28;20033;-53
2022/12/17 17:15:51;;;;;;;104.78;47.88;;;-2.10;99.90;;;;;;5012633;28;20045;-58
2022/12/17 17:18:37;;;;;;;107.20;48.08;;;-2.20;99.90;;;;;;5012952;28;20045;-54
2022/12/17 17:21:29;;;;;;;119.55;46.88;;;-2.10;99.90;;;;;;5011819;28;20058;-58
2022/12/17 17:24:16;;;;;;;98.00;46.50;;;-2.10;99.90;;;;;;5010061;28;20030;-55
2022/12/17 17:27:02;;;;;;;103.68;50.50;;;-2.20;99.90;;;;;;5007013;28;20056;-54
2022/12/17 17:29:48;;;;;;;125.10;55.65;;;-2.20;99.90;;;;;;5011423;28;20060;-58
2022/12/17 17:32:34;;;;;;;106.88;49.17;;;-2.20;99.90;;;;;;5011623;28;20536;-58
2022/12/17 17:35:20;;;;;;;117.60;53.60;;;-2.20;99.90;;;;;;5009178;28;20044;-57
2022/12/17 17:38:06;;;;;;;114.75;52.78;;;-2.20;99.90;;;;;;5009567;28;20084;-58
2022/12/17 17:40:56;;;;;;;114.38;55.28;;;-2.30;99.90;;;;;;5016142;28;20116;-58
2022/12/17 17:43:43;;;;;;;113.53;53.55;;;-2.30;99.90;;;;;;5015640;28;20026;-55
2022/12/17 17:46:29;;;;;;;137.48;60.40;;;-2.40;99.90;;;;;;5013946;28;20486;-58
2022/12/17 17:49:15;;;;;;;113.25;52.13;;;-2.40;99.90;;;;;;4998225;28;20038;-60
2022/12/17 17:52:02;;;;;;;121.63;50.92;;;-2.50;99.90;;;;;;5018299;28;20041;-56
2022/12/17 17:54:48;;;;;;;101.72;49.83;;;-2.50;99.90;;;;;;5012335;28;20035;-58
2022/12/17 17:57:34;;;;;;;116.97;51.95;;;-2.50;99.90;;;;;;4976766;28;20125;-55
2022/12/17 18:00:20;;;;;;;105.70;50.88;;;-2.40;99.90;;;;;;4991965;28;20121;-53
2022/12/17 18:03:06;;;;;;;114.57;53.33;;;-2.40;99.90;;;;;;5005731;28;20030;-54
2022/12/17 18:05:52;;;;;;;117.50;53.15;;;-2.30;99.90;;;;;;4998364;28;20037;-55
2022/12/17 18:08:39;;;;;;;107.57;51.15;;;-2.30;99.90;;;;;;5009711;28;20117;-53
2022/12/17 18:11:28;;;;;;;112.40;49.30;;;-2.20;99.90;;;;;;5012584;28;20042;-64
2022/12/17 18:14:13;;;;;;;116.53;48.78;;;-2.20;99.90;;;;;;4996721;28;20088;-54
2022/12/17 18:16:59;;;;;;;109.45;50.72;;;-2.30;99.90;;;;;;5014449;28;20498;-57
2022/12/17 18:19:47;;;;;;;126.82;51.97;;;-2.30;99.90;;;;;;5000523;28;20176;-53
2022/12/17 18:22:33;;;;;;;115.88;51.25;;;-2.30;99.90;;;;;;5011006;28;20026;-54
2022/12/17 18:25:19;;;;;;;132.18;55.35;;;-2.30;99.90;;;;;;5013956;28;20030;-58
2022/12/17 18:28:05;;;;;;;138.77;55.47;;;-2.30;99.90;;;;;;4995063;28;20063;-55
2022/12/17 18:30:51;;;;;;;128.18;50.75;;;-2.40;99.90;;;;;;5010760;28;20132;-53
2022/12/17 18:33:38;;;;;;;123.97;54.28;;;-2.40;99.90;;;;;;5021727;28;20030;-52
2022/12/17 18:36:30;;;;;;;115.15;51.92;;;-2.40;99.90;;;;;;5006396;28;20108;-57
2022/12/17 18:39:19;;;;;;;118.10;52.95;;;-2.40;99.90;;;;;;5026376;28;20710;-57
2022/12/17 18:45:11;;;;;;;120.05;50.95;;;-2.40;99.90;;;;;;5004746;28;20033;-58
2022/12/17 18:47:57;;;;;;;113.35;52.20;;;-2.50;99.90;;;;;;4997742;28;20029;-60
2022/12/17 18:50:43;;;;;;;112.95;49.65;;;-2.50;99.90;;;;;;4996604;28;20025;-58
2022/12/17 18:53:29;;;;;;;116.07;48.75;;;-2.50;99.90;;;;;;4998552;28;20036;-60
2022/12/17 18:56:15;;;;;;;119.90;49.90;;;-2.50;99.90;;;;;;5008076;28;20030;-60
2022/12/17 18:59:02;;;;;;;123.28;52.58;;;-2.50;99.90;;;;;;5006137;28;20030;-60
2022/12/17 19:01:49;;;;;;;123.03;52.70;;;-2.50;99.90;;;;;;4999273;28;20639;-60
2022/12/17 19:04:44;;;;;;;119.05;52.15;;;-2.50;99.90;;;;;;5010730;28;20037;-56
2022/12/17 19:07:30;;;;;;;108.40;51.30;;;-2.60;99.90;;;;;;5003820;28;20092;-57
2022/12/17 19:10:16;;;;;;;118.10;53.63;;;-2.60;99.90;;;;;;4991717;28;20038;-58
2022/12/17 19:13:02;;;;;;;114.10;53.53;;;-2.50;99.90;;;;;;4990816;28;20089;-59
2022/12/17 19:15:48;;;;;;;115.82;52.88;;;-2.40;99.90;;;;;;4990308;28;20084;-59
2022/12/17 19:18:34;;;;;;;116.93;50.88;;;-2.30;99.90;;;;;;5005496;28;20052;-52
2022/12/17 19:21:21;;;;;;;123.80;52.88;;;-2.40;99.90;;;;;;5009971;28;20113;-60
2022/12/17 19:24:10;;;;;;;106.50;48.10;;;-2.50;99.90;;;;;;4992224;28;20113;-56
2022/12/17 19:26:56;;;;;;;103.45;47.58;;;-2.50;99.90;;;;;;4992094;28;20026;-57
2022/12/17 19:29:42;;;;;;;98.53;46.17;;;-2.50;99.90;;;;;;5008340;28;20076;-61
2022/12/17 19:32:28;;;;;;;101.30;48.28;;;-2.60;99.90;;;;;;5008507;28;20113;-62
2022/12/17 19:35:14;;;;;;;101.20;46.20;;;-2.60;99.90;;;;;;4996483;28;20665;-61
2022/12/17 19:38:00;;;;;;;99.95;47.08;;;-2.50;99.90;;;;;;5008610;28;20482;-59
2022/12/17 19:40:50;;;;;;;100.50;47.63;;;-2.60;99.90;;;;;;4996857;28;20076;-57
2022/12/17 19:43:37;;;;;;;99.03;48.75;;;-2.70;99.90;;;;;;4983425;28;20026;-56
2022/12/17 19:46:24;;;;;;;105.88;50.75;;;-2.80;99.90;;;;;;4996555;28;20022;-57
2022/12/17 19:49:12;;;;;;;113.85;53.97;;;-2.70;99.90;;;;;;4995407;28;20064;-60
2022/12/17 19:51:58;;;;;;;105.03;50.97;;;-2.70;99.90;;;;;;5010570;28;20046;-54
2022/12/17 19:54:44;;;;;;;106.07;50.13;;;-2.70;99.90;;;;;;5011380;28;20030;-54
2022/12/17 19:57:31;;;;;;;108.90;53.70;;;-2.70;99.90;;;;;;4991276;28;20086;-56
2022/12/17 20:00:17;;;;;;;107.93;52.35;;;-2.80;99.90;;;;;;4968324;28;20086;-58
2022/12/17 20:03:03;;;;;;;119.32;54.15;;;-2.80;99.90;;;;;;4995535;28;20426;-56
2022/12/17 20:05:49;;;;;;;114.90;53.83;;;-2.80;99.90;;;;;;5009855;28;20472;-54
2022/12/17 20:08:35;;;;;;;106.05;50.42;;;-2.80;99.90;;;;;;5010445;28;20640;-58
2022/12/17 20:11:31;;;;;;;111.07;51.53;;;-2.90;99.90;;;;;;4996040;28;20030;-56
2022/12/17 20:14:25;;;;;;;133.93;49.85;;;-3.00;99.90;;;;;;5010342;28;20030;-56
2022/12/17 20:17:11;;;;;;;104.05;49.67;;;-3.40;99.90;;;;;;4996892;28;20104;-55
2022/12/17 20:19:56;;;;;;;105.43;51.33;;;-3.30;99.90;;;;;;4995613;28;20498;-56
2022/12/17 20:22:42;;;;;;;106.32;47.50;;;-3.20;99.90;;;;;;5010626;28;20026;-56
2022/12/17 20:25:31;;;;;;;104.43;49.38;;;-3.20;99.90;;;;;;4977547;28;20031;-59
2022/12/17 20:28:17;;;;;;;106.47;50.60;;;-3.10;99.90;;;;;;4980415;28;20034;-54
2022/12/17 20:31:03;;;;;;;109.07;55.97;;;-3.10;99.90;;;;;;5010393;28;20053;-54
2022/12/17 20:33:49;;;;;;;108.45;54.30;;;-3.20;99.90;;;;;;5009990;28;20506;-51
2022/12/17 20:36:35;;;;;;;93.43;48.10;;;-3.10;99.90;;;;;;4982809;28;20073;-55
2022/12/17 20:39:22;;;;;;;84.97;43.72;;;-3.10;99.90;;;;;;5010172;28;20410;-53
2022/12/17 20:42:08;;;;;;;104.13;45.42;;;-3.00;99.90;;;;;;5011810;28;20092;-56
2022/12/17 20:44:54;;;;;;;85.88;44.88;;;-3.00;99.90;;;;;;5011836;28;20398;-55
2022/12/17 20:47:39;;;;;;;120.18;44.63;;;-3.10;99.90;;;;;;5013498;28;20080;-54
2022/12/17 20:50:26;;;;;;;94.25;49.03;;;-3.20;99.90;;;;;;5014007;28;20041;-53
2022/12/17 20:53:12;;;;;;;84.70;45.05;;;-3.30;99.90;;;;;;5013562;28;20034;-57
2022/12/17 20:56:02;;;;;;;84.82;43.55;;;-3.20;99.90;;;;;;4994308;28;20410;-55
2022/12/17 20:58:53;;;;;;;105.10;44.30;;;-3.10;99.90;;;;;;4995800;28;20030;-56
2022/12/17 21:01:39;;;;;;;93.03;41.33;;;-3.10;99.90;;;;;;5012840;28;20022;-54
2022/12/17 21:04:27;;;;;;;78.20;40.70;;;-3.10;99.90;;;;;;4998555;28;20026;-58
2022/12/17 21:07:13;;;;;;;84.03;43.10;;;-3.10;99.90;;;;;;5014090;28;20053;-57
2022/12/17 21:09:59;;;;;;;96.63;46.88;;;-3.10;99.90;;;;;;4999388;28;20033;-56
2022/12/17 21:15:50;;;;;;;87.32;42.67;;;-3.30;99.90;;;;;;5009836;28;20091;-57
2022/12/17 21:18:36;;;;;;;84.03;42.42;;;-3.20;99.90;;;;;;5013119;28;20088;-54
2022/12/17 21:21:25;;;;;;;81.40;43.72;;;-3.20;99.90;;;;;;5013752;28;20080;-56
2022/12/17 21:24:11;;;;;;;83.65;41.72;;;-3.20;99.90;;;;;;5011919;28;20080;-55
2022/12/17 21:26:57;;;;;;;89.78;42.97;;;-3.20;99.90;;;;;;5013564;28;20490;-58
2022/12/17 21:29:43;;;;;;;84.97;42.78;;;-3.20;99.90;;;;;;5014379;28;20030;-56
2022/12/17 21:32:29;;;;;;;81.97;42.65;;;-3.30;99.90;;;;;;5009721;28;20022;-57
2022/12/17 21:35:16;;;;;;;83.32;43.05;;;-3.30;99.90;;;;;;5008621;28;20034;-55
2022/12/17 21:38:02;;;;;;;77.43;41.40;;;-3.30;99.90;;;;;;4997486;28;20449;-54
2022/12/17 21:40:48;;;;;;;113.82;56.22;;;-3.50;99.90;;;;;;4998237;28;20117;-56
2022/12/17 21:43:35;;;;;;;113.72;53.97;;;-3.70;99.90;;;;;;5013119;28;20026;-57
2022/12/17 21:46:22;;;;;;;104.35;43.13;;;-3.70;99.90;;;;;;4998122;28;20033;-54
2022/12/17 21:49:11;;;;;;;87.35;43.05;;;-3.80;99.90;;;;;;5011889;28;20567;-55
2022/12/17 21:51:58;;;;;;;87.18;42.60;;;-3.80;99.90;;;;;;5010565;28;20113;-56
2022/12/17 21:54:44;;;;;;;86.47;42.92;;;-3.80;99.90;;;;;;5011879;28;20039;-54
2022/12/17 21:57:30;;;;;;;85.13;41.45;;;-3.70;99.90;;;;;;4998943;28;20558;-58
2022/12/17 22:00:16;;;;;;;90.97;41.33;;;-3.80;99.90;;;;;;4997811;28;20049;-54
2022/12/17 22:03:02;;;;;;;77.13;39.05;;;-3.90;99.90;;;;;;5011912;28;20034;-54
2022/12/17 22:05:48;;;;;;;89.65;41.78;;;-3.80;99.90;;;;;;5012279;28;20029;-55
2022/12/17 22:08:35;;;;;;;100.32;41.65;;;-4.10;99.90;;;;;;5012641;28;20037;-57
2022/12/17 22:11:23;;;;;;;76.20;38.88;;;-4.10;99.90;;;;;;5003718;28;20018;-53
2022/12/17 22:14:11;;;;;;;92.20;39.50;;;-4.20;99.90;;;;;;5005171;28;20033;-57
2022/12/17 22:16:57;;;;;;;79.30;40.00;;;-4.30;99.90;;;;;;5009284;28;20108;-60
2022/12/17 22:19:44;;;;;;;83.53;41.05;;;-4.20;99.90;;;;;;4997866;28;20033;-60
2022/12/17 22:22:30;;;;;;;76.00;40.15;;;-4.10;99.90;;;;;;5011888;28;20064;-61
2022/12/17 22:25:16;;;;;;;72.50;39.70;;;-4.00;99.90;;;;;;5012504;28;20106;-58
2022/12/17 22:28:02;;;;;;;73.88;39.22;;;-3.90;99.90;;;;;;5011763;28;20048;-58
2022/12/17 22:33:55;;;;;;;73.70;37.85;;;-3.90;99.90;;;;;;5012893;28;20549;-56
2022/12/17 22:36:42;;;;;;;72.18;38.33;;;-3.80;99.90;;;;;;5005516;28;20041;-61
2022/12/17 22:39:27;;;;;;;71.22;38.30;;;-3.80;99.90;;;;;;4983968;28;20117;-60
2022/12/17 22:45:20;;;;;;;71.22;37.92;;;-3.70;99.90;;;;;;5012649;28;20612;-58
2022/12/17 22:48:09;;;;;;;71.82;38.17;;;-3.80;99.90;;;;;;5012659;28;20410;-62
2022/12/17 22:51:06;;;;;;;75.07;39.13;;;-3.80;99.90;;;;;;5012007;28;20479;-58
2022/12/17 22:53:52;;;;;;;75.53;39.90;;;-3.90;99.90;;;;;;4997568;28;20033;-54
2022/12/17 22:56:42;;;;;;;77.72;39.00;;;-3.90;99.90;;;;;;5012227;28;20038;-56
2022/12/17 22:59:28;;;;;;;70.90;37.28;;;-4.00;99.90;;;;;;5011613;28;20113;-59
2022/12/17 23:02:14;;;;;;;73.63;36.83;;;-4.00;99.90;;;;;;4996770;28;20037;-57
2022/12/17 23:05:00;;;;;;;69.05;37.83;;;-4.00;99.90;;;;;;5012140;28;20022;-57
2022/12/17 23:07:46;;;;;;;72.32;37.50;;;-4.00;99.90;;;;;;4964609;28;20022;-55
2022/12/17 23:10:35;;;;;;;67.13;35.72;;;-4.00;99.90;;;;;;4993409;28;20022;-56
2022/12/17 23:13:21;;;;;;;67.18;34.30;;;-4.00;99.90;;;;;;5011769;28;20030;-54
2022/12/17 23:16:08;;;;;;;62.08;34.47;;;-4.00;99.90;;;;;;5010046;28;20131;-59
2022/12/17 23:19:01;;;;;;;62.25;34.80;;;-4.00;99.90;;;;;;4997085;28;20030;-57
2022/12/17 23:21:47;;;;;;;63.38;34.88;;;-4.00;99.90;;;;;;5010472;28;20543;-60
2022/12/17 23:24:33;;;;;;;64.13;34.92;;;-3.90;99.90;;;;;;5011703;28;20026;-59
2022/12/17 23:27:27;;;;;;;68.82;37.92;;;-3.80;99.90;;;;;;5011792;28;20037;-58
2022/12/17 23:30:14;;;;;;;69.43;36.88;;;-3.80;99.90;;;;;;5011477;28;20453;-60
2022/12/17 23:33:00;;;;;;;72.15;36.60;;;-3.90;99.90;;;;;;4977087;28;20034;-60
2022/12/17 23:35:46;;;;;;;69.28;37.40;;;-3.80;99.90;;;;;;4994034;28;20026;-59
2022/12/17 23:38:33;;;;;;;66.70;36.45;;;-3.80;99.90;;;;;;4990794;28;20030;-59
2022/12/17 23:41:21;;;;;;;68.32;36.17;;;-3.80;99.90;;;;;;4996650;28;20107;-59
2022/12/17 23:44:07;;;;;;;65.80;36.35;;;-3.80;99.90;;;;;;5010021;28;20105;-56
2022/12/17 23:46:53;;;;;;;68.88;35.30;;;-3.90;99.90;;;;;;5010676;28;20561;-59
2022/12/17 23:49:39;;;;;;;68.82;36.53;;;-4.00;99.90;;;;;;5000062;28;20113;-55
2022/12/17 23:52:25;;;;;;;67.75;38.15;;;-4.10;99.90;;;;;;5008557;28;20038;-52
2022/12/17 23:55:13;;;;;;;73.90;39.10;;;-4.10;99.90;;;;;;5010547;28;20026;-49
2022/12/17 23:57:59;;;;;;;78.22;38.75;;;-4.10;99.90;;;;;;5010504;28;20038;-53
